Time;durP1;ratioP1;P1;durP2;ratioP2;P2;SDS_P1;SDS_P2;PMS_P1;PMS_P2;Temp;Humidity;BMP_temperature;BMP_pressure;BME280_temperature;BME280_humidity;BME280_pressure;Samples;Min_cycle;Max_cycle;Signal;HPM_P1;HPM_P2
2021/06/12 00:02:09;;;;;;;1999.90;999.90;;;23.40;99.90;;;;;;5080076;28;20175;-79
2021/06/12 00:04:35;;;;;;;1999.90;999.90;;;23.40;99.90;;;;;;5079622;28;20164;-79
2021/06/12 00:07:00;;;;;;;1999.90;999.90;;;23.30;99.90;;;;;;5080934;28;20195;-79
2021/06/12 00:09:27;;;;;;;1999.90;999.90;;;23.30;99.90;;;;;;5080527;28;20212;-79
2021/06/12 00:11:53;;;;;;;1999.90;999.90;;;23.30;99.90;;;;;;5153910;22;20195;-85
2021/06/12 00:14:19;;;;;;;1999.90;999.90;;;23.30;99.90;;;;;;5079973;28;20411;-85
2021/06/12 00:16:45;;;;;;;1999.90;999.90;;;23.30;99.90;;;;;;5080270;28;20387;-85
2021/06/12 00:19:11;;;;;;;1999.90;999.90;;;23.30;99.90;;;;;;5080314;28;20472;-85
2021/06/12 00:21:37;;;;;;;1999.90;999.90;;;23.30;99.90;;;;;;5081156;28;20171;-84
2021/06/12 00:24:04;;;;;;;1999.90;999.90;;;23.20;99.90;;;;;;5081298;28;20426;-84
2021/06/12 00:26:30;;;;;;;1999.90;999.90;;;23.20;1.00;;;;;;5080883;28;20171;-85
2021/06/12 00:28:55;;;;;;;1999.90;999.90;;;23.20;1.00;;;;;;5079512;28;20453;-85
2021/06/12 00:31:21;;;;;;;1999.90;999.90;;;23.10;99.90;;;;;;5079775;28;20168;-85
2021/06/12 00:33:50;;;;;;;1999.90;999.90;;;23.00;1.00;;;;;;5079501;28;20172;-84
2021/06/12 00:36:21;;;;;;;1999.90;999.90;;;23.00;99.90;;;;;;5080325;28;20174;-84
2021/06/12 00:38:51;;;;;;;1999.90;999.90;;;23.00;1.00;;;;;;5079694;28;20445;-85
2021/06/12 00:41:18;;;;;;;1999.90;999.90;;;23.10;30.00;;;;;;5079046;28;20461;-85
2021/06/12 00:43:44;;;;;;;1999.90;999.90;;;23.10;99.90;;;;;;5080425;28;20464;-85
2021/06/12 00:46:10;;;;;;;1999.90;999.90;;;23.00;1.00;;;;;;5080210;28;20402;-85
2021/06/12 00:48:36;;;;;;;1999.90;999.90;;;23.00;99.90;;;;;;5080181;28;20456;-85
2021/06/12 00:51:03;;;;;;;1999.90;999.90;;;23.00;99.90;;;;;;5080905;28;20422;-85
2021/06/12 00:53:40;;;;;;;1999.90;999.90;;;23.00;99.90;;;;;;5080554;28;20496;-85
2021/06/12 00:56:18;;;;;;;1999.90;999.90;;;23.00;99.90;;;;;;5080836;28;20393;-85
2021/06/12 00:58:45;;;;;;;1999.90;999.90;;;23.00;99.90;;;;;;5079923;28;20457;-85
2021/06/12 01:01:21;;;;;;;1999.90;999.90;;;23.00;99.90;;;;;;5080327;28;20405;-86
2021/06/12 01:03:48;;;;;;;1999.90;999.90;;;22.90;99.90;;;;;;5081131;28;20382;-86
2021/06/12 01:06:16;;;;;;;1999.90;999.90;;;22.90;99.90;;;;;;5081088;28;20426;-85
2021/06/12 01:08:42;;;;;;;1999.90;999.90;;;22.90;99.90;;;;;;5081316;28;20418;-86
2021/06/12 01:11:09;;;;;;;1999.90;999.90;;;22.90;99.90;;;;;;5081594;28;20459;-85
2021/06/12 01:14:02;;;;;;;1999.90;999.90;;;22.90;99.90;;;;;;5082303;28;20517;-85
2021/06/12 01:16:45;;;;;;;1999.90;999.90;;;22.80;99.90;;;;;;5082396;28;20574;-85
2021/06/12 01:19:38;;;;;;;1999.90;999.90;;;22.80;1.00;;;;;;5082321;28;20448;-85
2021/06/12 01:22:17;;;;;;;1999.90;999.90;;;22.80;1.00;;;;;;5065187;28;20406;-85
2021/06/12 01:25:07;;;;;;;1999.90;999.90;;;22.80;1.00;;;;;;5081489;28;20413;-85
2021/06/12 01:27:55;;;;;;;1999.90;999.90;;;22.80;1.00;;;;;;5081988;28;20382;-85
2021/06/12 01:30:37;;;;;;;1999.90;999.90;;;22.70;1.00;;;;;;5081057;28;20398;-85
2021/06/12 01:33:10;;;;;;;1999.90;999.90;;;22.70;1.00;;;;;;5080075;28;20399;-85
2021/06/12 01:35:49;;;;;;;1999.90;999.90;;;22.70;1.00;;;;;;5081780;28;20382;-85
2021/06/12 01:38:19;;;;;;;1999.90;999.90;;;22.70;1.00;;;;;;5080310;28;20521;-85
2021/06/12 01:40:46;;;;;;;1999.90;999.90;;;22.60;1.00;;;;;;5081502;28;20402;-85
2021/06/12 01:43:15;;;;;;;1999.90;999.90;;;22.60;1.00;;;;;;5081794;28;20395;-85
2021/06/12 01:45:42;;;;;;;1999.90;999.90;;;22.60;1.00;;;;;;5083268;28;20766;-85
2021/06/12 01:48:10;;;;;;;1999.90;999.90;;;22.60;1.00;;;;;;5084178;28;20438;-85
2021/06/12 01:50:36;;;;;;;1999.90;999.90;;;22.60;1.00;;;;;;5084067;28;20462;-85
2021/06/12 01:53:04;;;;;;;1999.90;999.90;;;22.60;1.00;;;;;;5083447;28;20424;-85
2021/06/12 01:55:32;;;;;;;1999.90;999.90;;;22.50;1.00;;;;;;5083357;28;20770;-86
2021/06/12 01:57:59;;;;;;;1999.90;999.90;;;22.50;1.00;;;;;;5083159;28;20438;-86
2021/06/12 02:00:25;;;;;;;1999.90;999.90;;;22.50;1.00;;;;;;5082958;28;20394;-85
2021/06/12 02:02:51;;;;;;;1999.90;999.90;;;22.40;1.00;;;;;;5082445;28;20398;-86
2021/06/12 02:05:22;;;;;;;1999.90;999.90;;;22.40;1.00;;;;;;5082525;28;20402;-85
2021/06/12 02:07:49;;;;;;;1999.90;999.90;;;22.40;1.00;;;;;;5064829;28;20406;-85
2021/06/12 02:10:34;;;;;;;1999.90;999.90;;;22.40;1.00;;;;;;5082476;28;20785;-85
2021/06/12 02:13:00;;;;;;;1999.90;999.90;;;22.40;1.00;;;;;;5083150;28;20475;-85
2021/06/12 02:15:29;;;;;;;1999.90;999.90;;;22.50;1.00;;;;;;5082528;28;20394;-85
2021/06/12 02:17:59;;;;;;;1999.90;999.90;;;22.50;1.00;;;;;;5082316;28;20492;-85
2021/06/12 02:20:25;;;;;;;1999.90;999.90;;;22.50;1.00;;;;;;5080678;28;20428;-84
2021/06/12 02:22:53;;;;;;;1999.90;999.90;;;22.50;1.00;;;;;;5081672;28;20394;-85
2021/06/12 02:25:19;;;;;;;1999.90;999.90;;;22.40;1.00;;;;;;5083068;28;20431;-85
2021/06/12 02:27:49;;;;;;;1999.90;999.90;;;22.40;1.00;;;;;;5082334;28;20390;-85
2021/06/12 02:30:17;;;;;;;1999.90;999.90;;;22.40;1.00;;;;;;5080747;28;20421;-85
2021/06/12 02:32:46;;;;;;;1999.90;999.90;;;22.40;1.00;;;;;;5080824;28;20426;-84
2021/06/12 02:35:12;;;;;;;1999.90;999.90;;;22.30;1.00;;;;;;5082233;28;20394;-85
2021/06/12 02:37:39;;;;;;;1999.90;999.90;;;22.30;99.90;;;;;;5082899;28;20410;-85
2021/06/12 02:40:07;;;;;;;1999.90;999.90;;;22.30;1.00;;;;;;5082075;28;20432;-85
2021/06/12 02:42:33;;;;;;;1999.90;999.90;;;22.30;99.90;;;;;;5082701;28;20405;-85
2021/06/12 02:44:59;;;;;;;1999.90;999.90;;;22.20;99.90;;;;;;5082942;28;20395;-85
2021/06/12 02:47:27;;;;;;;1999.90;999.90;;;22.20;1.00;;;;;;5081552;28;20173;-86
2021/06/12 02:49:56;;;;;;;1999.90;999.90;;;22.30;99.90;;;;;;5080972;28;20448;-86
2021/06/12 02:52:27;;;;;;;1999.90;999.90;;;22.20;99.90;;;;;;5081309;28;20428;-85
2021/06/12 02:54:54;;;;;;;1999.90;999.90;;;22.20;99.90;;;;;;5082393;28;20391;-85
2021/06/12 02:57:25;;;;;;;1999.90;999.90;;;22.30;1.00;;;;;;5082299;28;20398;-85
2021/06/12 02:59:54;;;;;;;1999.90;999.90;;;22.20;1.00;;;;;;5083255;28;20449;-85
2021/06/12 03:02:21;;;;;;;1999.90;999.90;;;22.30;1.00;;;;;;5081756;28;20929;-85
2021/06/12 03:04:48;;;;;;;1999.90;999.90;;;22.30;1.00;;;;;;5082906;28;20907;-85
2021/06/12 03:07:14;;;;;;;1999.90;999.90;;;22.30;1.00;;;;;;5081747;28;20409;-85
2021/06/12 03:09:44;;;;;;;1999.90;999.90;;;22.30;6.00;;;;;;5082238;28;20425;-85
2021/06/12 03:12:11;;;;;;;1999.90;999.90;;;22.30;34.90;;;;;;5064546;28;21018;-85
2021/06/12 03:14:39;;;;;;;1999.90;999.90;;;22.30;31.20;;;;;;5080714;28;20858;-85
2021/06/12 03:17:07;;;;;;;1999.90;999.90;;;22.20;30.70;;;;;;5081458;28;20464;-85
2021/06/12 03:19:34;;;;;;;1999.90;999.90;;;22.20;35.20;;;;;;5081808;28;20442;-86
2021/06/12 03:22:02;;;;;;;1999.90;999.90;;;22.20;30.00;;;;;;5083448;28;20398;-85
2021/06/12 03:24:28;;;;;;;1999.90;999.90;;;22.10;36.60;;;;;;5081160;28;20459;-85
2021/06/12 03:26:59;;;;;;;1999.90;999.90;;;22.10;33.30;;;;;;5083245;28;20403;-85
2021/06/12 03:29:26;;;;;;;1999.90;999.90;;;22.10;50.40;;;;;;5081160;28;20929;-85
2021/06/12 03:31:53;;;;;;;1999.90;999.90;;;22.20;41.80;;;;;;5082647;28;20406;-85
2021/06/12 03:34:20;;;;;;;1999.90;999.90;;;22.10;39.50;;;;;;5064878;28;20429;-85
2021/06/12 03:36:46;;;;;;;1999.90;999.90;;;22.20;33.90;;;;;;5082101;28;20421;-85
2021/06/12 03:39:12;;;;;;;1999.90;999.90;;;22.10;29.90;;;;;;5081435;28;20484;-86
2021/06/12 03:41:38;;;;;;;1999.90;999.90;;;22.10;53.10;;;;;;5064148;28;20836;-85
2021/06/12 03:44:05;;;;;;;1999.90;999.90;;;22.00;35.50;;;;;;5081680;28;20156;-85
2021/06/12 03:46:32;;;;;;;1999.90;999.90;;;22.00;20.00;;;;;;5080543;28;20410;-85
2021/06/12 03:48:58;;;;;;;1999.90;999.90;;;22.00;30.30;;;;;;5080918;28;20433;-85
2021/06/12 03:51:25;;;;;;;1999.90;999.90;;;21.90;25.10;;;;;;5081695;28;20402;-85
2021/06/12 03:53:54;;;;;;;1999.90;999.90;;;21.90;31.20;;;;;;5081014;28;20401;-85
2021/06/12 03:56:29;;;;;;;1999.90;999.90;;;21.90;29.80;;;;;;5081046;28;20403;-85
2021/06/12 03:58:54;;;;;;;1999.90;999.90;;;22.00;11.60;;;;;;5080063;28;20445;-85
2021/06/12 04:01:20;;;;;;;1999.90;999.90;;;22.00;33.90;;;;;;5081274;28;20405;-85
2021/06/12 04:03:46;;;;;;;1999.90;999.90;;;22.00;56.40;;;;;;5081256;28;20214;-85
2021/06/12 04:06:12;;;;;;;1999.90;999.90;;;22.00;28.40;;;;;;5081309;28;20221;-85
2021/06/12 04:08:39;;;;;;;1999.90;999.90;;;22.00;31.70;;;;;;5079008;28;20434;-86
2021/06/12 04:11:06;;;;;;;1999.90;999.90;;;21.90;44.50;;;;;;5081572;28;20410;-85
2021/06/12 04:13:32;;;;;;;1999.90;999.90;;;21.90;29.30;;;;;;5080510;28;20827;-85
2021/06/12 04:15:57;;;;;;;1999.90;999.90;;;22.00;27.60;;;;;;5063167;28;20418;-85
2021/06/12 04:18:23;;;;;;;1999.90;999.90;;;22.00;50.60;;;;;;5080927;28;20207;-85
2021/06/12 04:20:49;;;;;;;1999.90;999.90;;;22.00;20.80;;;;;;5080386;28;20522;-85
2021/06/12 04:23:15;;;;;;;1999.90;999.90;;;21.90;20.20;;;;;;5079394;28;20164;-85
2021/06/12 04:25:41;;;;;;;1999.90;999.90;;;21.90;15.50;;;;;;5081177;28;20243;-86
2021/06/12 04:28:07;;;;;;;1999.90;999.90;;;21.80;11.50;;;;;;5080587;28;20410;-85
2021/06/12 04:30:33;;;;;;;1999.90;999.90;;;21.90;30.80;;;;;;5081442;28;20162;-85
2021/06/12 04:33:00;;;;;;;1999.90;999.90;;;21.90;51.00;;;;;;5079897;28;20209;-85
2021/06/12 04:35:28;;;;;;;1999.90;999.90;;;21.90;72.30;;;;;;5081532;28;20410;-85
2021/06/12 04:37:55;;;;;;;1999.90;999.90;;;21.80;84.60;;;;;;5063144;28;20410;-85
2021/06/12 04:40:21;;;;;;;1999.90;999.90;;;21.80;78.20;;;;;;5081359;28;20436;-86
2021/06/12 04:42:47;;;;;;;1999.90;999.90;;;21.70;90.60;;;;;;5082258;28;20402;-85
2021/06/12 04:45:13;;;;;;;1999.90;999.90;;;21.70;98.10;;;;;;5081001;28;20213;-85
2021/06/12 04:47:38;;;;;;;1999.90;999.90;;;21.70;97.00;;;;;;5081902;28;20217;-85
2021/06/12 04:50:05;;;;;;;1999.90;999.90;;;21.70;91.80;;;;;;5082361;28;20180;-86
2021/06/12 04:52:31;;;;;;;1999.90;999.90;;;21.70;77.10;;;;;;5081246;28;20231;-85
2021/06/12 04:54:57;;;;;;;1999.90;999.90;;;21.70;99.10;;;;;;5082595;28;20426;-86
2021/06/12 04:57:22;;;;;;;1999.90;999.90;;;21.70;99.90;;;;;;5082394;28;20164;-85
2021/06/12 04:59:48;;;;;;;1999.90;999.90;;;21.80;98.70;;;;;;5080715;28;20208;-85
2021/06/12 05:02:14;;;;;;;1999.90;999.90;;;21.80;99.90;;;;;;5080600;28;20164;-85
2021/06/12 05:04:40;;;;;;;1999.90;999.90;;;21.80;98.90;;;;;;5080206;28;20282;-85
2021/06/12 05:07:06;;;;;;;1999.90;999.90;;;21.80;99.90;;;;;;5079908;28;20417;-85
2021/06/12 05:09:32;;;;;;;1999.90;999.90;;;21.80;99.90;;;;;;5079438;28;20191;-85
2021/06/12 05:12:01;;;;;;;1999.90;999.90;;;21.90;99.90;;;;;;5078691;28;20168;-85
2021/06/12 05:14:27;;;;;;;1999.90;999.90;;;21.90;99.90;;;;;;5080193;28;20164;-85
2021/06/12 05:16:53;;;;;;;1999.90;999.90;;;22.00;99.90;;;;;;5078659;28;20767;-85
2021/06/12 05:19:18;;;;;;;1999.90;999.90;;;22.20;99.90;;;;;;5080070;28;20207;-86
2021/06/12 05:21:46;;;;;;;1999.90;999.90;;;22.20;99.90;;;;;;5078901;28;20171;-85
2021/06/12 05:24:12;;;;;;;1999.90;999.90;;;22.30;99.90;;;;;;5079287;28;20160;-85
2021/06/12 05:26:39;;;;;;;1999.90;999.90;;;22.20;99.90;;;;;;5078986;28;20485;-85
2021/06/12 05:29:05;;;;;;;1999.90;999.90;;;22.20;99.90;;;;;;5077363;28;20773;-85
2021/06/12 05:31:32;;;;;;;1999.90;999.90;;;22.30;99.90;;;;;;5078452;28;20429;-84
2021/06/12 05:34:01;;;;;;;1999.90;999.90;;;22.30;99.90;;;;;;5078872;28;20398;-84
2021/06/12 05:36:27;;;;;;;1999.90;999.90;;;22.10;99.90;;;;;;5079031;28;20907;-85
2021/06/12 05:38:52;;;;;;;1999.90;999.90;;;22.20;99.90;;;;;;5078977;28;20458;-85
2021/06/12 05:41:18;;;;;;;1999.90;999.90;;;22.20;99.90;;;;;;5078993;28;20175;-85
2021/06/12 05:43:44;;;;;;;1999.90;999.90;;;22.20;99.90;;;;;;5078808;28;20229;-84
2021/06/12 05:46:09;;;;;;;1999.90;999.90;;;22.10;99.90;;;;;;5061216;28;20190;-84
2021/06/12 05:48:35;;;;;;;1999.90;999.90;;;22.10;99.90;;;;;;5078811;28;20707;-85
2021/06/12 05:51:01;;;;;;;1999.90;999.90;;;22.20;99.90;;;;;;5078435;28;20217;-85
2021/06/12 05:53:27;;;;;;;1999.90;999.90;;;22.20;99.90;;;;;;5078996;28;20210;-85
2021/06/12 05:55:52;;;;;;;1999.90;999.90;;;22.30;99.90;;;;;;5079045;28;20402;-84
2021/06/12 05:58:18;;;;;;;1999.90;999.90;;;22.30;99.90;;;;;;5077797;28;20682;-85
2021/06/12 06:00:45;;;;;;;1999.90;999.90;;;22.30;94.10;;;;;;5077247;28;20247;-84
2021/06/12 06:03:11;;;;;;;1999.90;999.90;;;22.20;99.00;;;;;;5078839;28;20402;-84
2021/06/12 06:05:36;;;;;;;1999.90;999.90;;;22.20;99.90;;;;;;5078907;28;20468;-84
2021/06/12 06:08:02;;;;;;;1999.90;999.90;;;22.20;98.00;;;;;;5078556;28;20205;-85
2021/06/12 06:10:28;;;;;;;1999.90;999.90;;;22.20;91.10;;;;;;5078776;28;20493;-85
2021/06/12 06:12:54;;;;;;;1999.90;999.90;;;22.30;82.70;;;;;;5148372;22;20230;-86
2021/06/12 06:15:19;;;;;;;1999.90;999.90;;;22.30;1.00;;;;;;5093437;28;20160;-85
2021/06/12 06:17:45;;;;;;;1999.90;999.90;;;22.10;1.00;;;;;;5094069;28;20186;-85
2021/06/12 06:20:13;;;;;;;1999.90;999.90;;;22.10;1.00;;;;;;5094678;28;20675;-85
2021/06/12 06:22:39;;;;;;;1999.90;999.90;;;22.10;1.00;;;;;;5093884;28;20167;-85
2021/06/12 06:25:06;;;;;;;1999.90;999.90;;;22.20;1.00;;;;;;5094893;28;20881;-85
2021/06/12 06:27:32;;;;;;;1999.90;999.90;;;22.30;1.00;;;;;;5095350;28;20397;-85
2021/06/12 06:30:03;;;;;;;1999.90;999.90;;;22.40;1.00;;;;;;5092865;28;20555;-85
2021/06/12 06:32:29;;;;;;;1999.90;999.90;;;22.40;1.00;;;;;;5096677;28;20384;-85
2021/06/12 06:34:55;;;;;;;1999.90;999.90;;;22.40;1.00;;;;;;5098699;28;20428;-85
2021/06/12 06:37:20;;;;;;;1999.90;999.90;;;22.50;99.90;;;;;;5097999;28;20167;-85
2021/06/12 06:39:46;;;;;;;1999.90;999.90;;;22.50;99.90;;;;;;5095691;28;20734;-85
2021/06/12 06:42:12;;;;;;;1999.90;999.90;;;22.50;99.90;;;;;;5096383;28;20206;-85
2021/06/12 06:44:37;;;;;;;1999.90;999.90;;;22.50;99.90;;;;;;5097717;28;20235;-85
2021/06/12 06:47:04;;;;;;;1999.90;999.90;;;22.50;99.90;;;;;;5096547;28;20216;-85
2021/06/12 06:49:30;;;;;;;1999.90;999.90;;;22.50;99.90;;;;;;5097784;28;20187;-85
2021/06/12 06:51:56;;;;;;;1999.90;999.90;;;22.50;99.90;;;;;;5096369;28;20414;-85
2021/06/12 06:54:22;;;;;;;1999.90;999.90;;;22.40;99.90;;;;;;5097385;28;20409;-85
2021/06/12 06:56:48;;;;;;;1999.90;999.90;;;22.40;99.90;;;;;;5096382;28;20178;-85
2021/06/12 06:59:16;;;;;;;1999.90;999.90;;;22.30;99.90;;;;;;5097140;28;20191;-87
2021/06/12 07:01:42;;;;;;;1999.90;999.90;;;22.30;99.90;;;;;;5097424;28;20246;-86
2021/06/12 07:04:08;;;;;;;1999.90;999.90;;;22.20;99.90;;;;;;5096330;28;20408;-86
2021/06/12 07:06:34;;;;;;;1999.90;999.90;;;22.20;99.90;;;;;;5096080;28;20764;-85
2021/06/12 07:08:59;;;;;;;1999.90;999.90;;;22.20;99.90;;;;;;5095354;28;20195;-85
2021/06/12 07:11:25;;;;;;;1999.90;999.90;;;22.20;1.00;;;;;;5096970;28;20171;-85
2021/06/12 07:13:51;;;;;;;1999.90;999.90;;;22.20;1.00;;;;;;5096444;28;20176;-85
2021/06/12 07:16:19;;;;;;;1999.90;999.90;;;22.10;1.00;;;;;;5096612;28;20167;-84
2021/06/12 07:18:44;;;;;;;1999.90;999.90;;;22.20;1.00;;;;;;5094617;28;20203;-83
2021/06/12 07:21:10;;;;;;;1999.90;999.90;;;22.20;1.00;;;;;;5095389;28;20410;-84
2021/06/12 07:23:38;;;;;;;1999.90;999.90;;;22.20;1.00;;;;;;5096841;28;20530;-84
2021/06/12 07:26:07;;;;;;;1999.90;999.90;;;22.30;1.00;;;;;;5094981;28;20175;-84
2021/06/12 07:28:33;;;;;;;1999.90;999.90;;;22.20;1.00;;;;;;5097071;28;20485;-84
2021/06/12 07:31:05;;;;;;;1999.90;999.90;;;22.30;1.00;;;;;;5094989;28;20401;-84
2021/06/12 07:33:30;;;;;;;1999.90;999.90;;;22.30;1.00;;;;;;5097086;28;20162;-84
2021/06/12 07:35:56;;;;;;;1999.90;999.90;;;22.40;1.00;;;;;;5096202;28;20405;-84
2021/06/12 07:38:22;;;;;;;1999.90;999.90;;;22.20;1.00;;;;;;5095796;28;20199;-84
2021/06/12 07:40:48;;;;;;;1999.90;999.90;;;22.30;1.00;;;;;;5096202;28;20246;-84
2021/06/12 07:43:19;;;;;;;1999.90;999.90;;;22.30;1.00;;;;;;5094679;28;20167;-84
2021/06/12 07:45:46;;;;;;;1999.90;999.90;;;22.40;1.00;;;;;;5094494;28;20534;-84
2021/06/12 07:48:16;;;;;;;1999.90;999.90;;;22.50;1.00;;;;;;5096069;28;20405;-84
2021/06/12 07:50:45;;;;;;;1999.90;999.90;;;22.70;1.00;;;;;;5095114;28;21030;-84
2021/06/12 07:53:11;;;;;;;1999.90;999.90;;;22.80;1.00;;;;;;5094385;28;20405;-85
2021/06/12 07:55:39;;;;;;;1999.90;999.90;;;22.80;1.00;;;;;;5096765;28;20765;-84
2021/06/12 07:58:05;;;;;;;1999.90;999.90;;;22.60;1.00;;;;;;5094169;28;20177;-85
2021/06/12 08:00:31;;;;;;;1999.90;999.90;;;22.50;1.00;;;;;;5095917;28;20500;-86
2021/06/12 08:02:57;;;;;;;1999.90;999.90;;;22.50;1.00;;;;;;5099316;28;20232;-85
2021/06/12 08:05:24;;;;;;;1999.90;999.90;;;22.50;1.00;;;;;;5099284;28;20573;-85
2021/06/12 08:07:50;;;;;;;1999.90;999.90;;;22.50;1.00;;;;;;5097216;28;20177;-85
2021/06/12 08:10:16;;;;;;;1999.90;999.90;;;22.50;1.00;;;;;;5095773;28;20425;-85
2021/06/12 08:12:41;;;;;;;1999.90;999.90;;;22.60;1.00;;;;;;5096837;28;20812;-85
2021/06/12 08:15:09;;;;;;;1999.90;999.90;;;22.70;1.00;;;;;;5097389;28;20249;-85
2021/06/12 08:17:35;;;;;;;1999.90;999.90;;;22.80;1.00;;;;;;5097249;28;20511;-85
2021/06/12 08:20:01;;;;;;;1999.90;999.90;;;22.80;1.00;;;;;;5095909;28;20549;-84
2021/06/12 08:22:26;;;;;;;1999.90;999.90;;;22.90;1.00;;;;;;5105276;28;20409;-85
2021/06/12 08:24:57;;;;;;;1999.90;999.90;;;22.80;1.00;;;;;;5103014;28;20167;-85
2021/06/12 08:27:23;;;;;;;1999.90;999.90;;;22.80;1.00;;;;;;5101737;28;20397;-85
2021/06/12 08:29:49;;;;;;;1999.90;999.90;;;22.70;1.00;;;;;;5102948;28;20435;-84
2021/06/12 08:32:18;;;;;;;1999.90;999.90;;;22.60;1.00;;;;;;5097338;28;20292;-85
2021/06/12 08:34:45;;;;;;;1999.90;999.90;;;22.60;1.00;;;;;;5098275;28;20753;-84
2021/06/12 08:37:13;;;;;;;1999.90;999.90;;;22.60;1.00;;;;;;5096660;28;20405;-85
2021/06/12 08:39:39;;;;;;;1999.90;999.90;;;22.60;1.00;;;;;;5097788;28;20442;-85
2021/06/12 08:42:05;;;;;;;1999.90;999.90;;;22.50;1.00;;;;;;5095890;28;20416;-85
2021/06/12 08:44:33;;;;;;;1999.90;999.90;;;22.40;1.00;;;;;;5095780;28;20159;-86
2021/06/12 08:46:59;;;;;;;1999.90;999.90;;;22.30;1.00;;;;;;5094256;28;20401;-86
2021/06/12 08:49:28;;;;;;;1999.90;999.90;;;22.20;1.00;;;;;;5077641;28;20517;-86
2021/06/12 08:51:53;;;;;;;1999.90;999.90;;;21.90;1.00;;;;;;5095553;28;20914;-86
2021/06/12 08:54:25;;;;;;;1999.90;999.90;;;21.90;99.90;;;;;;5094927;28;20398;-85
2021/06/12 08:56:51;;;;;;;1999.90;999.90;;;21.90;1.00;;;;;;5094961;28;20195;-86
2021/06/12 08:59:24;;;;;;;1999.90;999.90;;;21.80;1.00;;;;;;5094024;28;20892;-86
2021/06/12 09:01:56;;;;;;;1999.90;999.90;;;21.70;1.00;;;;;;5095113;28;20429;-86
2021/06/12 09:04:57;;;;;;;1999.90;999.90;;;21.60;1.00;;;;;;5095293;28;20394;-86
2021/06/12 09:07:40;;;;;;;1999.90;999.90;;;21.60;1.00;;;;;;5093071;28;20397;-86
2021/06/12 09:10:22;;;;;;;1999.90;999.90;;;21.70;1.00;;;;;;5093679;28;20985;-86
2021/06/12 09:13:01;;;;;;;1999.90;999.90;;;21.60;1.00;;;;;;5096333;28;20432;-85
2021/06/12 09:15:27;;;;;;;1999.90;999.90;;;21.60;33.70;;;;;;5095103;28;20386;-86
2021/06/12 09:18:09;;;;;;;1999.90;999.90;;;21.50;1.00;;;;;;5093605;28;20407;-86
2021/06/12 09:20:43;;;;;;;1999.90;999.90;;;21.40;35.50;;;;;;5094702;28;20455;-86
2021/06/12 09:23:22;;;;;;;1999.90;999.90;;;21.20;1.00;;;;;;5095649;28;20445;-86
2021/06/12 09:25:49;;;;;;;1999.90;999.90;;;21.10;62.10;;;;;;5096673;28;20938;-86
2021/06/12 09:28:23;;;;;;;1999.90;999.90;;;21.00;99.90;;;;;;5095153;28;20420;-86
2021/06/12 09:30:52;;;;;;;1999.90;999.90;;;20.90;99.90;;;;;;5096780;28;20419;-85
2021/06/12 09:33:38;;;;;;;1999.90;999.90;;;21.00;99.90;;;;;;5096985;28;20961;-85
2021/06/12 09:36:16;;;;;;;1999.90;999.90;;;21.00;99.90;;;;;;5094843;28;20408;-86
2021/06/12 09:38:45;;;;;;;1999.90;999.90;;;21.00;1.00;;;;;;5096742;28;20451;-85
2021/06/12 09:41:29;;;;;;;1999.90;999.90;;;21.00;41.60;;;;;;5096621;28;20408;-85
2021/06/12 09:43:55;;;;;;;1999.90;999.90;;;21.10;99.90;;;;;;5093972;28;20433;-86
2021/06/12 09:46:45;;;;;;;1999.90;999.90;;;21.10;16.50;;;;;;5093315;28;20401;-86
2021/06/12 09:49:17;;;;;;;1999.90;999.90;;;21.30;99.90;;;;;;5094462;28;20436;-86
2021/06/12 09:52:21;;;;;;;1999.90;999.90;;;21.30;1.00;;;;;;5094580;28;20451;-86
2021/06/12 09:54:53;;;;;;;1999.90;999.90;;;21.50;1.00;;;;;;5052603;28;20390;-86
2021/06/12 09:57:28;;;;;;;1999.90;999.90;;;21.70;1.00;;;;;;5052099;28;20465;-86
2021/06/12 10:00:37;;;;;;;1999.90;999.90;;;21.90;1.00;;;;;;5094057;28;20509;-86
2021/06/12 10:03:32;;;;;;;1999.90;999.90;;;22.00;1.00;;;;;;5074941;28;20460;-86
2021/06/12 10:06:39;;;;;;;1999.90;999.90;;;22.00;4.90;;;;;;5094591;28;20750;-86
2021/06/12 10:09:07;;;;;;;1999.90;999.90;;;22.10;99.90;;;;;;5097997;28;20423;-86
2021/06/12 10:11:37;;;;;;;1999.90;999.90;;;22.20;99.90;;;;;;5096506;28;20492;-86
2021/06/12 10:14:07;;;;;;;1999.90;999.90;;;22.10;99.90;;;;;;5096811;28;20478;-86
2021/06/12 10:16:40;;;;;;;1999.90;999.90;;;22.30;99.90;;;;;;5097337;28;20436;-86
2021/06/12 10:19:09;;;;;;;1999.90;999.90;;;22.50;1.00;;;;;;5097531;28;20472;-86
2021/06/12 10:21:35;;;;;;;1999.90;999.90;;;22.40;1.00;;;;;;5097522;28;20440;-85
2021/06/12 10:24:05;;;;;;;1999.90;999.90;;;22.50;1.00;;;;;;5096274;28;20825;-86
2021/06/12 10:26:37;;;;;;;1999.90;999.90;;;22.50;1.00;;;;;;5095655;28;20405;-86
2021/06/12 10:29:08;;;;;;;1999.90;999.90;;;22.50;1.00;;;;;;5096884;28;20429;-86
2021/06/12 10:31:53;;;;;;;;;;;;;;;;;;;;;
2021/06/12 10:34:25;;;;;;;1999.90;999.90;;;22.70;1.00;;;;;;5096618;28;20409;-85
2021/06/12 10:36:58;;;;;;;1999.90;999.90;;;22.60;1.00;;;;;;5097023;28;20382;-86
2021/06/12 10:39:37;;;;;;;1999.90;999.90;;;22.60;1.00;;;;;;5095874;28;20449;-85
2021/06/12 10:42:20;;;;;;;1999.90;999.90;;;22.50;1.00;;;;;;5095782;28;20436;-86
2021/06/12 10:44:58;;;;;;;1999.90;999.90;;;22.30;1.00;;;;;;5095189;28;20412;-86
2021/06/12 10:47:49;;;;;;;1999.90;999.90;;;22.20;1.00;;;;;;5095633;28;20901;-85
2021/06/12 10:50:49;;;;;;;1999.90;999.90;;;22.10;1.00;;;;;;5095409;28;20486;-86
2021/06/12 10:53:33;;;;;;;1999.90;999.90;;;22.10;1.00;;;;;;5096623;28;20390;-85
2021/06/12 10:56:04;;;;;;;1999.90;999.90;;;22.00;1.00;;;;;;5095615;28;20447;-86
2021/06/12 10:58:35;;;;;;;1999.90;999.90;;;22.10;1.00;;;;;;5095541;28;20445;-85
2021/06/12 11:01:19;;;;;;;1999.90;999.90;;;22.30;1.00;;;;;;5095962;28;20449;-86
2021/06/12 11:06:37;;;;;;;1999.90;999.90;;;22.70;99.90;;;;;;5096686;28;20429;-85
2021/06/12 11:09:18;;;;;;;1999.90;999.90;;;22.90;1.00;;;;;;5095532;28;20436;-86
2021/06/12 11:11:52;;;;;;;1999.90;999.90;;;23.10;1.00;;;;;;5094983;28;20416;-85
2021/06/12 11:14:21;;;;;;;1999.90;999.90;;;22.90;99.90;;;;;;5096046;28;20466;-86
2021/06/12 11:17:23;;;;;;;1999.90;999.90;;;22.70;99.90;;;;;;5094834;28;21004;-86
2021/06/12 11:19:56;;;;;;;1999.90;999.90;;;22.80;1.00;;;;;;5094846;28;20502;-85
2021/06/12 11:22:37;;;;;;;1999.90;999.90;;;22.90;1.00;;;;;;5096225;28;20873;-85
2021/06/12 11:25:06;;;;;;;1999.90;999.90;;;23.10;1.00;;;;;;5096743;28;20469;-85
2021/06/12 11:27:46;;;;;;;1999.90;999.90;;;23.20;99.90;;;;;;5096437;28;20402;-86
2021/06/12 11:30:24;;;;;;;1999.90;999.90;;;23.40;99.90;;;;;;5096097;28;20912;-85
2021/06/12 11:33:03;;;;;;;1999.90;999.90;;;23.60;99.90;;;;;;5095679;28;20936;-86
2021/06/12 11:35:47;;;;;;;1999.90;999.90;;;23.70;1.00;;;;;;5095900;28;20492;-86
2021/06/12 11:38:40;;;;;;;1999.90;999.90;;;23.90;1.00;;;;;;5096033;28;20490;-86
2021/06/12 11:41:13;;;;;;;1999.90;999.90;;;24.20;1.00;;;;;;5096447;28;20960;-86
2021/06/12 11:43:44;;;;;;;1999.90;999.90;;;24.40;1.00;;;;;;5095601;28;20409;-86
2021/06/12 11:46:18;;;;;;;1999.90;999.90;;;24.70;1.00;;;;;;5094933;28;20477;-86
2021/06/12 11:48:45;;;;;;;1999.90;999.90;;;24.90;4.90;;;;;;5096084;28;20425;-87
2021/06/12 11:51:19;;;;;;;1999.90;999.90;;;25.00;20.40;;;;;;5095670;28;20554;-87
2021/06/12 11:54:09;;;;;;;1999.90;999.90;;;24.90;99.90;;;;;;5095869;28;20378;-86
2021/06/12 11:56:37;;;;;;;1999.90;999.90;;;25.00;99.90;;;;;;5094628;28;20428;-87
2021/06/12 11:59:13;;;;;;;1999.90;999.90;;;25.20;99.90;;;;;;5094436;28;20445;-87
2021/06/12 12:02:02;;;;;;;1999.90;999.90;;;25.20;99.90;;;;;;5094340;28;20892;-86
2021/06/12 12:04:41;;;;;;;1999.90;999.90;;;25.10;99.90;;;;;;5095466;28;20741;-87
2021/06/12 12:07:33;;;;;;;1999.90;999.90;;;24.90;99.90;;;;;;5096243;28;20491;-86
2021/06/12 12:10:02;;;;;;;1999.90;999.90;;;24.80;99.00;;;;;;5095827;28;20548;-87
2021/06/12 12:12:33;;;;;;;1999.90;999.90;;;24.80;99.70;;;;;;5166584;22;20438;-85
2021/06/12 12:14:59;;;;;;;1999.90;999.90;;;25.00;99.90;;;;;;5081285;28;20388;-85
2021/06/12 12:17:29;;;;;;;1999.90;999.90;;;25.00;97.50;;;;;;5080630;28;20864;-85
2021/06/12 12:19:57;;;;;;;1999.90;999.90;;;25.30;97.40;;;;;;5081226;28;20338;-84
2021/06/12 12:22:38;;;;;;;1999.90;999.90;;;25.20;95.90;;;;;;5080124;28;20400;-84